Airfield :
LOGIN :

Register | Disclaimer

   EN    FR    IT 

 










Legend :    VFR   Marginal VFR   IFR   Intensive IFR   Very Intensive IFR
Visi :
Ceiling :
>= 8 km
>= 3000ft
5 to 8 km
1000 to 3000 ft
1500m to 5 km
500 to 1000 ft
800 to 1500m
200 to 500 ft
< 800m
< 200 ft
Symbols :   Thunderstorms  Fog  Heavy snow  Heavy precipitations  Wind > 20 kt
SIGMETs :     Misc.  Thunderstorms  Icing  Turbulence  Mountain Waves  Volcanic Ashes






- Airport Elevation : 12 ft
- IATA code : BCN


LEBL - Barcelone

CURRENT METAR :
  • 160430Z 34005KT 9999 FEW050 12/07 Q1018 NOSIG

EXPIRED METARs :
  • 160400Z 32005KT 9999 FEW050 12/07 Q1019 NOSIG
  • 160330Z 32006KT 9999 FEW050 12/07 Q1019 NOSIG
  • 160300Z 32003KT 280V350 CAVOK 12/07 Q1019 NOSIG
  • 160230Z 32007KT 9999 FEW050 13/07 Q1019 NOSIG
  • 160200Z 32008KT 9999 FEW050 13/07 Q1019 NOSIG

TAF TAF LEBL
Valid from the 16 at 00:00 until the 17 at 00:00 UTC


152300Z 1600/1624 33008KT 9999 FEW030 TX24/1612Z TN14/1606Z
BECMG 1609/1611 22010KT
BECMG 1622/1624 35005KT



MET'MAP, your aeronautical weather chart ! - Copyright ORBIFLY December 2007 - Disclaimer

ORBIFLY MET'MAP TEAM :

Programming & Development : Alexandra Zaïnal
Concept & Development : Baudouin d'Aumeries
Co-Development & Prog : Marc-Olivier Méhu
Technical & hardware support : Manuel Goepfert

Contact : metmap@orbifly.com




SOURCES & CREDITS :

   NOAA